WEERSTATION DAALHOF

uw weer voor Maastricht West

Luchthavens in de buurt

   
Beek
Gewijzigd: 30-03-2020 07:55
Helder  
Helder  
   Wind: NO 7.4 km/h
Wind: NO 7.4 km/h
Temperatuur: -4°C
Voelt als: -7°C
Dauwpunt: -7°C
Vochtigheid: 80%
Barometer: 1031 hPa
Bewolking: Helder
Zicht: Meer dan 10 km
Bewolking: Helder
EHBK 300555Z AUTO 04004KT 9999 NCD M04/M07 Q1031 NOSIG
Eindhoven
Gewijzigd: 30-03-2020 07:55
Grotendeels bewolkt  
Grotendeels bewolkt  
   Wind: ZW 1.9 km/h
Wind: ZW 1.9 km/h
Temperatuur: -2°C
Dauwpunt: -5°C
Vochtigheid: 80%
Barometer: 1033 hPa
Bewolking: Grotendeels bewolkt
Zicht: Meer dan 10 km
Bewolking: Gedeeltelijk bewolkt 1066.8 m,
Grotendeels bewolkt 1188.7 m,
Grotendeels bewolkt 1493.5 m
EHEH 300555Z AUTO 22001KT 9999 SCT035 BKN039 BKN049 M02/M05 Q1033 BLU VRB03KT CAVOK
Rotterdam
Gewijzigd: 30-03-2020 07:55
Helder  
Helder  
   Wind: ZW 3.7 km/h
Wind: ZW 3.7 km/h
Temperatuur: -1°C
Dauwpunt: -4°C
Vochtigheid: 80%
Barometer: 1033 hPa
Bewolking: Helder
Zicht: Meer dan 10 km
Bewolking: Helder
EHRD 300555Z AUTO 23002KT 9999 NCD M01/M04 Q1033 NOSIG
Amsterdam
Gewijzigd: 30-03-2020 07:55
Licht bewolkt  
Licht bewolkt  
   Wind: Westen 1.9 km/h
Wind: Westen 1.9 km/h
Temperatuur: -1°C
Dauwpunt: -4°C
Vochtigheid: 80%
Barometer: 1032 hPa
Bewolking: Licht bewolkt
Zicht: Meer dan 10 km
Bewolking: Licht bewolkt 853.4 m
EHAM 300555Z 26001KT 9999 FEW028 M01/M04 Q1032 NOSIG
Liège
Gewijzigd: 30-03-2020 08:20
Helder  
Helder  
   Wind: Varieert 3.7 km/h
Wind: Varieert 3.7 km/h
Temperatuur: -3°C
Dauwpunt: -7°C
Vochtigheid: 74%
Barometer: 1032 hPa
Zicht: Meer dan 10 km
Bewolking: Helder
EBLG 300620Z VRB02KT CAVOK M03/M07 Q1032 NOSIG
Bruxelles
Gewijzigd: 30-03-2020 08:20
Helder  
Helder  
   Wind: Stil
Wind: Stil
Temperatuur: -2°C
Dauwpunt: -7°C
Vochtigheid: 69%
Barometer: 1033 hPa
Zicht: Meer dan 10 km
Bewolking: Helder
EBBR 300620Z 00000KT CAVOK M02/M07 Q1033 NOSIG
Luxembourg
Gewijzigd: 30-03-2020 08:20
Helder  
Helder  
   Wind: NO 25.9 km/h
Wind: NO 25.9 km/h
Temperatuur: -2°C
Voelt als: -8°C
Dauwpunt: -10°C
Vochtigheid: 55%
Barometer: 1028 hPa
Zicht: Meer dan 10 km
Bewolking: Helder
ELLX 300620Z 05014KT CAVOK M02/M10 Q1028 NOSIG
Düsseldorf
Gewijzigd: 30-03-2020 08:20
Helder  
Helder  
   Wind: OZO 1.9 km/h
Wind: OZO 1.9 km/h
Temperatuur: -3°C
Dauwpunt: -6°C
Vochtigheid: 80%
Barometer: 1032 hPa
Zicht: Meer dan 10 km
Bewolking: Helder
EDDL 300620Z 12001KT CAVOK M03/M06 Q1032 NOSIG
Frankfurt am Main
Gewijzigd: 30-03-2020 08:20
Helder  
Helder  
   Wind: NO 16.7 km/h
Wind: NO 16.7 km/h
Temperatuur: 0°C
Voelt als: -4°C
Dauwpunt: -9°C
Vochtigheid: 51%
Barometer: 1030 hPa
Zicht: Meer dan 10 km
Bewolking: Helder
EDDF 300620Z 04009KT CAVOK M00/M09 Q1030 NOSIG

Originele script door Saratoga weather  Aangepast door weerstation Leuven 

U vindt ons ook hier:

Het Weer Aktueel

WeatherlinkIP

Weather Underground

KnmiWow

UK Metoffice

Apparatuur in gebruik:

Weerstation
Davis Vantage Pro 2

Datalogger
Davis Weatherlink

Weercomputer
Meteobridge Pro

Leverancier
Weerspecialist

Webleverancier
Robohost

Davis Vantage Pro 2

Davis Weatherlink

Meteobridge Pro

Weerspecialist

Robohost